createdAt,value
2018-11-14T00:00:23.515Z,22.47
2018-11-14T00:02:52.335Z,20.37
2018-11-14T00:05:21.195Z,16.80
2018-11-14T00:07:50.017Z,22.93
2018-11-14T00:10:19.404Z,14.53
2018-11-14T00:12:47.860Z,21.20
2018-11-14T00:15:19.055Z,19.70
2018-11-14T00:17:48.547Z,20.90
2018-11-14T00:20:17.431Z,27.40
2018-11-14T00:22:47.204Z,17.63
2018-11-14T00:25:16.023Z,21.80
2018-11-14T00:27:44.799Z,18.50
2018-11-14T00:30:19.878Z,19.17
2018-11-14T00:32:48.673Z,18.70
2018-11-14T00:35:17.625Z,18.67
2018-11-14T00:37:47.851Z,18.37
2018-11-14T00:40:18.792Z,23.50
2018-11-14T00:42:48.187Z,20.07
2018-11-14T00:45:19.616Z,18.40
2018-11-14T00:47:49.150Z,25.47
2018-11-14T00:50:18.624Z,15.57
2018-11-14T00:52:47.598Z,19.03
2018-11-14T00:55:18.688Z,19.93
2018-11-14T00:57:48.605Z,25.17
2018-11-14T01:00:18.844Z,23.93
2018-11-14T01:02:47.686Z,21.60
2018-11-14T01:05:17.120Z,20.97
2018-11-14T01:07:45.925Z,17.07
2018-11-14T01:10:17.255Z,19.43
2018-11-14T01:12:46.721Z,23.43
2018-11-14T01:15:17.145Z,20.63
2018-11-14T01:17:45.985Z,22.20
2018-11-14T01:20:22.215Z,26.37
2018-11-14T01:22:51.983Z,19.90
2018-11-14T01:25:20.846Z,25.47
2018-11-14T01:27:49.602Z,19.43
2018-11-14T01:30:20.405Z,21.37
2018-11-14T01:32:49.825Z,22.17
2018-11-14T01:35:19.030Z,25.47
2018-11-14T01:37:47.940Z,20.87
2018-11-14T01:40:18.383Z,16.30
2018-11-14T01:42:49.220Z,19.53
2018-11-14T01:45:17.991Z,16.40
2018-11-14T01:47:46.837Z,21.60
2018-11-14T01:50:15.667Z,14.73
2018-11-14T01:52:44.420Z,22.23
2018-11-14T01:55:14.425Z,26.10
2018-11-14T01:57:43.244Z,14.90
2018-11-14T02:00:17.013Z,21.90
2018-11-14T02:02:45.812Z,16.90
2018-11-14T02:05:14.656Z,22.43
2018-11-14T02:07:43.493Z,19.20
2018-11-14T02:10:13.781Z,18.63
2018-11-14T02:12:43.121Z,20.80
2018-11-14T02:15:20.455Z,20.80
2018-11-14T02:17:49.219Z,23.80
2018-11-14T02:20:17.992Z,20.90
2018-11-14T02:22:47.206Z,20.60
2018-11-14T02:25:16.440Z,17.90
2018-11-14T02:27:45.144Z,20.30
2018-11-14T02:30:16.932Z,19.27
2018-11-14T02:32:45.712Z,24.03
2018-11-14T02:35:14.508Z,20.37
2018-11-14T02:37:44.146Z,18.60
2018-11-14T02:40:15.325Z,15.83
2018-11-14T02:42:44.102Z,23.27
2018-11-14T02:45:13.360Z,21.23
2018-11-14T02:47:42.207Z,20.73
2018-11-14T02:50:13.852Z,16.10
2018-11-14T02:52:42.673Z,21.53
2018-11-14T02:55:12.811Z,21.50
2018-11-14T02:57:41.900Z,22.03
2018-11-14T03:00:13.212Z,30.23
2018-11-14T03:02:42.498Z,24.93
2018-11-14T03:05:11.369Z,18.53
2018-11-14T03:07:40.241Z,19.73
2018-11-14T03:10:12.502Z,20.50
2018-11-14T03:12:41.445Z,22.97
2018-11-14T03:15:12.388Z,18.43
2018-11-14T03:17:41.163Z,12.63
2018-11-14T03:20:12.952Z,21.27
2018-11-14T03:22:41.813Z,24.53
2018-11-14T03:25:11.856Z,17.83
2018-11-14T03:27:40.674Z,20.73
2018-11-14T03:30:12.317Z,20.97
2018-11-14T03:32:42.630Z,18.47
2018-11-14T03:35:12.681Z,18.57
2018-11-14T03:37:41.682Z,23.13
2018-11-14T03:40:12.669Z,18.20
2018-11-14T03:42:41.557Z,21.17
2018-11-14T03:45:12.753Z,39.17
2018-11-14T03:47:42.003Z,26.83
2018-11-14T03:50:10.903Z,22.10
2018-11-14T03:52:39.939Z,25.20
2018-11-14T03:55:08.657Z,20.33
2018-11-14T03:57:37.480Z,18.43
2018-11-14T04:00:09.175Z,19.63
2018-11-14T04:02:37.886Z,20.13
2018-11-14T04:05:07.058Z,20.27
2018-11-14T04:07:35.887Z,23.20
2018-11-14T04:10:06.193Z,17.33
2018-11-14T04:12:34.967Z,21.00
2018-11-14T04:15:03.718Z,28.90
2018-11-14T04:17:32.520Z,21.87
2018-11-14T04:20:01.488Z,24.83
2018-11-14T04:22:30.437Z,22.73
2018-11-14T04:24:59.174Z,23.87
2018-11-14T04:27:28.081Z,18.97
2018-11-14T04:29:56.943Z,18.47
2018-11-14T04:32:25.710Z,21.10
2018-11-14T04:34:54.484Z,26.37
2018-11-14T04:37:23.342Z,19.33
2018-11-14T04:39:52.101Z,15.20
2018-11-14T04:42:20.889Z,16.10
2018-11-14T04:44:49.829Z,21.13
2018-11-14T04:47:18.625Z,19.00
2018-11-14T04:49:47.513Z,19.33
2018-11-14T04:52:16.335Z,22.47
2018-11-14T04:54:45.128Z,23.30
2018-11-14T04:57:13.940Z,19.87
2018-11-14T04:59:42.804Z,23.57
2018-11-14T05:02:11.748Z,19.83
2018-11-14T05:04:40.580Z,18.67
2018-11-14T05:07:09.356Z,18.97
2018-11-14T05:09:38.113Z,23.63
2018-11-14T05:12:07.623Z,19.40
2018-11-14T05:14:36.445Z,21.63
2018-11-14T05:17:05.541Z,23.37
2018-11-14T05:19:34.236Z,22.70
2018-11-14T05:22:03.080Z,23.63
2018-11-14T05:24:31.875Z,23.93
2018-11-14T05:27:00.808Z,22.60
2018-11-14T05:29:29.632Z,24.23
2018-11-14T05:31:58.515Z,19.53
2018-11-14T05:34:27.313Z,22.87
2018-11-14T05:36:56.213Z,24.07
2018-11-14T05:39:26.367Z,17.37
2018-11-14T05:41:55.348Z,21.03
2018-11-14T05:44:24.097Z,23.13
2018-11-14T05:46:52.866Z,25.23
2018-11-14T05:49:21.726Z,23.07
2018-11-14T05:51:50.478Z,19.47
2018-11-14T05:54:19.268Z,18.57
2018-11-14T05:56:48.085Z,21.43
2018-11-14T05:59:16.909Z,28.43
2018-11-14T06:01:45.645Z,26.67
2018-11-14T06:04:14.382Z,23.87
2018-11-14T06:06:43.112Z,23.47
2018-11-14T06:09:13.532Z,19.10
2018-11-14T06:11:42.481Z,28.13
2018-11-14T06:14:11.405Z,15.50
2018-11-14T06:16:40.244Z,16.27
2018-11-14T06:19:09.062Z,20.13
2018-11-14T06:21:37.877Z,17.40
2018-11-14T06:24:06.734Z,20.93
2018-11-14T06:26:35.501Z,18.10
2018-11-14T06:29:04.251Z,22.60
2018-11-14T06:31:33.539Z,22.60
2018-11-14T06:34:02.285Z,22.70
2018-11-14T06:36:30.957Z,16.50
2018-11-14T06:38:59.727Z,23.37
2018-11-14T06:41:28.483Z,30.87
2018-11-14T06:43:57.235Z,23.70
2018-11-14T06:46:25.956Z,26.83
2018-11-14T06:48:54.705Z,26.73
2018-11-14T06:51:23.471Z,23.83
2018-11-14T06:53:52.320Z,27.27
2018-11-14T06:56:21.108Z,24.03
2018-11-14T06:58:49.950Z,16.80
2018-11-14T07:01:18.729Z,24.43
2018-11-14T07:03:47.656Z,28.60
2018-11-14T07:06:16.549Z,28.20
2018-11-14T07:08:45.214Z,22.43
2018-11-14T07:11:14.005Z,24.33
2018-11-14T07:13:43.643Z,28.53
2018-11-14T07:16:12.375Z,34.00
2018-11-14T07:18:41.111Z,20.67
2018-11-14T07:21:11.743Z,19.13
2018-11-14T07:23:40.537Z,24.50
2018-11-14T07:26:09.282Z,21.43
2018-11-14T07:28:38.080Z,20.73
2018-11-14T07:31:06.783Z,23.57
2018-11-14T07:33:35.681Z,21.43
2018-11-14T07:36:04.421Z,27.63
2018-11-14T07:38:51.263Z,26.73
2018-11-14T07:41:23.311Z,23.23
2018-11-14T07:43:52.136Z,21.47
2018-11-14T07:46:21.631Z,23.00
2018-11-14T07:48:50.980Z,27.47
2018-11-14T07:51:19.704Z,25.23
2018-11-14T07:53:48.429Z,28.80
2018-11-14T07:56:17.232Z,28.70
2018-11-14T07:58:45.984Z,28.87
2018-11-14T08:01:14.815Z,31.77
2018-11-14T08:03:43.727Z,28.87
2018-11-14T08:06:12.510Z,27.33
2018-11-14T08:08:41.411Z,27.27
2018-11-14T08:11:10.247Z,29.40
2018-11-14T08:13:40.407Z,30.33
2018-11-14T08:16:09.204Z,26.93
2018-11-14T08:18:37.966Z,24.93
2018-11-14T08:21:07.133Z,24.07
2018-11-14T08:23:35.928Z,34.20
2018-11-14T08:26:04.767Z,26.23
2018-11-14T08:28:33.648Z,34.10
2018-11-14T08:31:02.601Z,24.33
2018-11-14T08:33:31.329Z,25.60
2018-11-14T08:36:00.070Z,38.87
2018-11-14T08:38:28.865Z,32.10
2018-11-14T08:40:57.656Z,30.77
2018-11-14T08:43:26.379Z,28.70
2018-11-14T08:45:55.119Z,23.63
2018-11-14T08:48:23.842Z,23.87
2018-11-14T08:50:52.700Z,24.70
2018-11-14T08:53:21.444Z,25.97
2018-11-14T08:55:50.209Z,34.83
2018-11-14T08:58:19.019Z,26.00
2018-11-14T09:00:47.755Z,28.60
2018-11-14T09:03:16.493Z,25.77
2018-11-14T09:05:45.296Z,27.10
2018-11-14T09:08:14.052Z,31.27
2018-11-14T09:10:42.825Z,25.57
2018-11-14T09:13:14.718Z,27.53
2018-11-14T09:15:43.673Z,24.43
2018-11-14T09:18:12.447Z,29.43
2018-11-14T09:20:41.223Z,21.43
2018-11-14T09:23:09.980Z,32.80
2018-11-14T09:25:38.798Z,24.83
2018-11-14T09:28:07.643Z,22.47
2018-11-14T09:30:36.430Z,29.73
2018-11-14T09:33:05.816Z,30.10
2018-11-14T09:35:34.562Z,26.37
2018-11-14T09:38:03.263Z,32.97
2018-11-14T09:40:32.014Z,26.93
2018-11-14T09:43:00.771Z,30.77
2018-11-14T09:45:31.595Z,29.37
2018-11-14T09:48:00.362Z,31.37
2018-11-14T09:50:32.139Z,29.30
2018-11-14T09:53:02.197Z,29.53
2018-11-14T09:55:30.838Z,32.00
2018-11-14T09:57:59.606Z,40.03
2018-11-14T10:00:29.525Z,28.03
2018-11-14T10:03:03.323Z,31.70
2018-11-14T10:05:31.970Z,27.63
2018-11-14T10:08:00.699Z,30.50
2018-11-14T10:10:29.399Z,25.63
2018-11-14T10:12:58.140Z,27.97
2018-11-14T10:15:27.495Z,25.13
2018-11-14T10:17:56.246Z,30.87
2018-11-14T10:20:25.358Z,30.50
2018-11-14T10:22:54.089Z,30.37
2018-11-14T10:25:22.880Z,33.43
2018-11-14T10:27:52.747Z,31.80
2018-11-14T10:30:22.881Z,25.10
2018-11-14T10:32:53.090Z,26.50
2018-11-14T10:35:21.863Z,29.00
2018-11-14T10:37:51.245Z,31.40
2018-11-14T10:40:28.598Z,31.13
2018-11-14T10:42:57.506Z,28.20
2018-11-14T10:45:27.035Z,23.13
2018-11-14T10:47:56.061Z,28.53
2018-11-14T10:50:26.027Z,31.10
2018-11-14T10:52:54.877Z,34.70
2018-11-14T10:55:24.342Z,27.27
2018-11-14T10:57:53.776Z,36.27
2018-11-14T11:00:30.763Z,34.70
2018-11-14T11:03:06.726Z,36.47
2018-11-14T11:05:40.855Z,36.23
2018-11-14T11:08:15.142Z,40.33
2018-11-14T11:11:23.042Z,29.53
2018-11-14T11:14:09.148Z,28.53
2018-11-14T11:16:43.379Z,32.90
2018-11-14T11:19:12.475Z,27.47
2018-11-14T11:21:41.304Z,31.00
2018-11-14T11:24:10.913Z,29.13
2018-11-14T11:26:39.760Z,35.67
2018-11-14T11:29:10.045Z,29.23
2018-11-14T11:31:39.095Z,33.83
2018-11-14T11:34:08.714Z,38.43
2018-11-14T11:36:37.765Z,35.80
2018-11-14T11:39:08.853Z,32.60
2018-11-14T11:41:38.473Z,44.43
2018-11-14T11:44:07.481Z,42.83
2018-11-14T11:46:36.968Z,35.07
2018-11-14T11:49:05.823Z,38.60
2018-11-14T11:51:34.623Z,41.80
2018-11-14T11:54:04.008Z,34.23
2018-11-14T11:56:32.927Z,36.10
2018-11-14T11:59:02.101Z,31.40
2018-11-14T12:01:31.223Z,41.63
2018-11-14T12:04:01.095Z,38.13
2018-11-14T12:06:30.593Z,37.83
2018-11-14T12:08:59.605Z,35.00
2018-11-14T12:11:28.541Z,47.07
2018-11-14T12:13:57.403Z,36.80
2018-11-14T12:16:27.059Z,41.47
2018-11-14T12:20:25.080Z,37.87
2018-11-14T12:22:53.948Z,40.87
2018-11-14T12:25:22.736Z,38.90
2018-11-14T12:27:51.827Z,41.17
2018-11-14T12:30:20.613Z,39.50
2018-11-14T12:32:49.425Z,38.13
2018-11-14T12:35:18.435Z,40.80
2018-11-14T12:37:47.099Z,37.30
2018-11-14T12:40:15.888Z,41.97
2018-11-14T12:42:44.700Z,38.00
2018-11-14T12:45:14.682Z,44.30
2018-11-14T12:47:43.576Z,36.60
2018-11-14T12:50:13.778Z,35.03
2018-11-14T12:52:42.931Z,31.87
2018-11-14T12:55:13.932Z,36.40
2018-11-14T12:57:42.836Z,35.50
2018-11-14T13:00:13.285Z,39.13
2018-11-14T13:02:41.973Z,39.67
2018-11-14T13:05:11.719Z,41.57
2018-11-14T13:07:40.775Z,40.80
2018-11-14T13:10:11.063Z,43.23
2018-11-14T13:12:39.991Z,44.40
2018-11-14T13:15:09.915Z,43.43
2018-11-14T13:17:38.751Z,40.10
2018-11-14T13:20:16.281Z,46.80
2018-11-14T13:22:45.585Z,39.97
2018-11-14T13:25:15.143Z,44.03
2018-11-14T13:27:45.335Z,38.33
2018-11-14T13:30:17.328Z,32.57
2018-11-14T13:32:47.011Z,42.37
2018-11-14T13:35:17.002Z,32.43
2018-11-14T13:37:47.530Z,40.87
2018-11-14T13:40:16.404Z,44.33
2018-11-14T13:42:45.425Z,40.90
2018-11-14T13:45:17.262Z,36.47
2018-11-14T13:47:46.155Z,36.87
2018-11-14T13:50:18.685Z,41.00
2018-11-14T13:52:47.332Z,36.23
2018-11-14T13:55:17.803Z,36.23
2018-11-14T13:57:47.931Z,37.97
2018-11-14T14:00:18.903Z,34.13
2018-11-14T14:02:48.657Z,39.87
2018-11-14T14:05:19.631Z,41.60
2018-11-14T14:07:49.171Z,40.27
2018-11-14T14:10:25.383Z,42.47
2018-11-14T14:12:54.940Z,45.43
2018-11-14T14:15:25.419Z,43.17
2018-11-14T14:17:56.532Z,34.27
2018-11-14T14:20:27.459Z,34.70
2018-11-14T14:22:56.735Z,37.27
2018-11-14T14:25:25.747Z,41.17
2018-11-14T14:27:55.913Z,45.70
2018-11-14T14:30:24.929Z,44.80
2018-11-14T14:32:53.998Z,36.13
2018-11-14T14:35:23.429Z,37.30
2018-11-14T14:40:38.332Z,41.03
2018-11-14T14:43:08.289Z,42.17
2018-11-14T14:45:37.217Z,38.97
2018-11-14T14:48:06.590Z,35.20
2018-11-14T14:50:35.463Z,45.23
2018-11-14T14:53:04.387Z,42.70
2018-11-14T14:55:34.137Z,43.53
2018-11-14T14:58:04.329Z,39.60
2018-11-14T15:00:36.449Z,46.27
2018-11-14T15:03:05.417Z,43.13
2018-11-14T15:05:35.262Z,39.60
2018-11-14T15:08:05.162Z,54.57
2018-11-14T15:10:35.276Z,40.57
2018-11-14T15:13:05.002Z,35.37
2018-11-14T15:15:34.042Z,39.90
2018-11-14T15:18:02.991Z,39.87
2018-11-14T15:20:33.861Z,36.93
2018-11-14T15:23:03.802Z,36.57
2018-11-14T15:25:33.025Z,40.60
2018-11-14T15:28:03.783Z,43.50
2018-11-14T15:30:33.204Z,37.00
2018-11-14T15:33:03.483Z,37.47
2018-11-14T15:35:33.453Z,42.40
2018-11-14T15:38:02.197Z,40.87
2018-11-14T15:40:30.956Z,43.77
2018-11-14T15:42:59.701Z,44.40
2018-11-14T15:45:29.430Z,53.23
2018-11-14T15:47:58.201Z,49.00
2018-11-14T15:50:28.295Z,37.43
2018-11-14T15:52:58.441Z,40.03
2018-11-14T15:55:27.268Z,42.33
2018-11-14T15:57:56.360Z,36.87
2018-11-14T16:00:29.256Z,37.87
2018-11-14T16:03:02.497Z,45.10
2018-11-14T16:05:32.612Z,52.60
2018-11-14T16:08:02.364Z,39.40
2018-11-14T16:10:31.813Z,41.80
2018-11-14T16:13:00.590Z,39.73
2018-11-14T16:15:31.862Z,46.87
2018-11-14T16:18:00.786Z,54.43
2018-11-14T16:20:29.445Z,40.53
2018-11-14T16:22:58.337Z,43.07
2018-11-14T16:25:27.907Z,36.43
2018-11-14T16:27:58.211Z,37.73
2018-11-14T16:30:28.302Z,36.87
2018-11-14T16:32:58.522Z,35.03
2018-11-14T16:35:27.272Z,36.33
2018-11-14T16:37:56.139Z,35.30
2018-11-14T16:40:28.259Z,36.40
2018-11-14T16:43:00.898Z,37.10
2018-11-14T16:45:29.690Z,36.10
2018-11-14T16:47:58.703Z,34.03
2018-11-14T16:50:27.605Z,33.67
2018-11-14T16:52:57.320Z,36.03
2018-11-14T16:55:26.830Z,34.57
2018-11-14T16:57:56.477Z,42.80
2018-11-14T17:00:26.597Z,38.57
2018-11-14T17:02:55.560Z,33.93
2018-11-14T17:05:25.587Z,45.93
2018-11-14T17:07:54.645Z,212.83
2018-11-14T17:10:23.886Z,75.87
2018-11-14T17:12:55.189Z,48.23
2018-11-14T17:15:25.366Z,36.37
2018-11-14T17:17:54.438Z,36.47
2018-11-14T17:20:23.833Z,33.83
2018-11-14T17:22:54.218Z,31.17
2018-11-14T17:25:23.154Z,32.63
2018-11-14T17:27:51.974Z,36.73
2018-11-14T17:30:22.500Z,37.40
2018-11-14T17:32:51.792Z,33.03
2018-11-14T17:35:21.677Z,35.17
2018-11-14T17:37:50.454Z,34.70
2018-11-14T17:40:22.441Z,35.03
2018-11-14T17:42:51.991Z,39.77
2018-11-14T17:45:22.848Z,36.07
2018-11-14T17:47:52.069Z,46.40
2018-11-14T17:50:24.211Z,39.17
2018-11-14T17:52:53.677Z,40.37
2018-11-14T17:55:22.985Z,37.47
2018-11-14T17:57:51.816Z,35.80
2018-11-14T18:00:21.975Z,47.87
2018-11-14T18:09:59.873Z,44.43
2018-11-14T18:12:28.729Z,42.37
2018-11-14T18:14:57.980Z,39.37
2018-11-14T18:17:26.921Z,35.33
2018-11-14T18:19:56.170Z,38.67
2018-11-14T18:22:25.023Z,34.60
2018-11-14T18:24:53.962Z,40.70
2018-11-14T18:27:23.707Z,39.53
2018-11-14T18:29:52.952Z,41.03
2018-11-14T18:32:21.739Z,38.63
2018-11-14T18:35:08.624Z,39.23
2018-11-14T18:37:38.234Z,41.73
2018-11-14T18:40:13.794Z,37.93
2018-11-14T18:42:44.974Z,39.10
2018-11-14T18:45:24.806Z,39.77
2018-11-14T18:48:03.605Z,43.73
2018-11-14T18:50:34.168Z,51.10
2018-11-14T18:53:05.440Z,52.10
2018-11-14T18:55:36.339Z,42.70
2018-11-14T18:58:06.170Z,47.93
2018-11-14T19:00:36.125Z,52.47
2018-11-14T19:03:05.721Z,46.90
2018-11-14T19:05:38.477Z,56.73
2018-11-14T19:08:07.710Z,51.30
2018-11-14T19:10:36.897Z,48.20
2018-11-14T19:13:05.854Z,43.57
2018-11-14T19:15:36.111Z,43.43
2018-11-14T19:18:05.480Z,52.40
2018-11-14T19:20:35.874Z,43.53
2018-11-14T19:23:07.016Z,43.87
2018-11-14T19:25:37.209Z,45.53
2018-11-14T19:28:08.057Z,52.03
2018-11-14T19:30:40.255Z,42.17
2018-11-14T19:33:09.435Z,45.37
2018-11-14T19:35:39.581Z,45.70
2018-11-14T19:38:08.764Z,50.73
2018-11-14T19:40:38.713Z,47.43
2018-11-14T19:43:08.847Z,46.77
2018-11-14T19:45:38.591Z,50.30
2018-11-14T19:48:07.521Z,52.97
2018-11-14T19:50:36.342Z,43.83
2018-11-14T19:53:05.197Z,49.47
2018-11-14T19:55:34.907Z,45.40
2018-11-14T19:58:04.493Z,51.90
2018-11-14T20:00:35.560Z,45.57
2018-11-14T20:03:04.688Z,45.97
2018-11-14T20:05:33.403Z,62.73
2018-11-14T20:08:02.289Z,78.70
2018-11-14T20:10:32.308Z,80.47
2018-11-14T20:13:01.116Z,55.57
2018-11-14T20:15:31.384Z,44.80
2018-11-14T20:18:00.373Z,47.63
2018-11-14T20:20:30.649Z,53.13
2018-11-14T20:22:59.660Z,48.37
2018-11-14T20:25:28.505Z,46.97
2018-11-14T20:27:58.189Z,52.30
2018-11-14T20:30:30.686Z,44.03
2018-11-14T20:34:02.766Z,43.90
2018-11-14T20:36:31.725Z,47.67
2018-11-14T20:39:00.632Z,53.20
2018-11-14T20:41:29.518Z,45.77
2018-11-14T20:43:59.179Z,53.40
2018-11-14T20:46:28.059Z,44.10
2018-11-14T20:48:57.026Z,47.83
2018-11-14T20:51:26.283Z,51.03
2018-11-14T20:53:56.911Z,41.70
2018-11-14T20:56:26.287Z,52.77
2018-11-14T20:58:56.097Z,51.43
2018-11-14T21:01:24.966Z,48.10
2018-11-14T21:03:53.903Z,47.63
2018-11-14T21:06:22.808Z,45.53
2018-11-14T21:08:51.641Z,54.67
2018-11-14T21:11:20.367Z,56.57
2018-11-14T21:13:49.181Z,48.47
2018-11-14T21:16:17.917Z,47.40
2018-11-14T21:18:46.708Z,44.13
2018-11-14T21:21:15.458Z,58.67
2018-11-14T21:23:44.269Z,49.83
2018-11-14T21:26:13.040Z,47.77
2018-11-14T21:28:41.788Z,51.60
2018-11-14T21:31:10.773Z,47.53
2018-11-14T21:33:39.548Z,44.60
2018-11-14T21:36:08.324Z,47.30
2018-11-14T21:38:37.032Z,51.27
2018-11-14T21:41:05.811Z,63.73
2018-11-14T21:43:34.669Z,51.50
2018-11-14T21:46:03.301Z,47.47
2018-11-14T21:48:32.028Z,43.93
2018-11-14T21:51:00.769Z,48.60
2018-11-14T21:53:29.538Z,43.70
2018-11-14T21:55:58.331Z,49.47
2018-11-14T21:58:27.154Z,52.00
2018-11-14T22:00:56.072Z,49.63
2018-11-14T22:03:24.985Z,49.47
2018-11-14T22:05:53.811Z,47.57
2018-11-14T22:08:22.535Z,45.13
2018-11-14T22:10:51.389Z,47.73
2018-11-14T22:13:20.177Z,48.13
2018-11-14T22:15:49.525Z,51.83
2018-11-14T22:18:18.244Z,49.73
2018-11-14T22:20:47.002Z,50.37
2018-11-14T22:23:15.746Z,49.20
2018-11-14T22:25:44.870Z,43.20
2018-11-14T22:28:13.847Z,50.20
2018-11-14T22:30:42.614Z,49.03
2018-11-14T22:33:11.319Z,41.63
2018-11-14T22:35:40.084Z,48.30
2018-11-14T22:38:08.888Z,49.13
2018-11-14T22:40:37.679Z,49.03
2018-11-14T22:43:06.492Z,62.77
2018-11-14T22:45:35.249Z,57.40
2018-11-14T22:48:04.000Z,48.70
2018-11-14T22:50:32.745Z,44.37
2018-11-14T22:53:01.510Z,53.60
2018-11-14T22:55:30.407Z,42.67
2018-11-14T22:57:59.156Z,41.23
2018-11-14T23:00:35.245Z,50.67
2018-11-14T23:03:04.034Z,45.93
2018-11-14T23:05:32.835Z,47.70
2018-11-14T23:08:01.771Z,46.83
2018-11-14T23:10:30.653Z,42.33
2018-11-14T23:12:59.395Z,47.90
2018-11-14T23:15:28.308Z,47.40
2018-11-14T23:17:57.089Z,46.77
2018-11-14T23:20:25.971Z,43.53
2018-11-14T23:22:55.284Z,44.73
2018-11-14T23:25:24.382Z,40.80
2018-11-14T23:27:54.235Z,43.30
2018-11-14T23:30:27.333Z,43.53
2018-11-14T23:32:56.875Z,43.07
2018-11-14T23:35:26.692Z,45.87
2018-11-14T23:37:56.820Z,41.87
2018-11-14T23:40:25.807Z,51.43
2018-11-14T23:43:01.499Z,51.30
2018-11-14T23:45:30.951Z,43.77
2018-11-14T23:47:59.810Z,41.73
2018-11-14T23:50:30.918Z,40.27
2018-11-14T23:53:00.837Z,39.40
2018-11-14T23:55:30.347Z,37.67
2018-11-14T23:57:59.577Z,43.00
